Time;durP1;ratioP1;P1;durP2;ratioP2;P2;SDS_P1;SDS_P2;PMS_P1;PMS_P2;Temp;Humidity;BMP_temperature;BMP_pressure;BME280_temperature;BME280_humidity;BME280_pressure;Samples;Min_cycle;Max_cycle;Signal;HPM_P1;HPM_P2
2022/10/07 00:01:14;;;;;;;7.50;0.90;;;;;;;12.12;59.39;96233.75;5132860;27;20449;-54
2022/10/07 00:03:42;;;;;;;0.40;0.30;;;;;;;11.34;59.94;96226.47;5132855;27;20514;-54
2022/10/07 00:06:13;;;;;;;0.40;0.20;;;;;;;11.86;59.35;96237.31;5133090;27;20980;-54
2022/10/07 00:08:42;;;;;;;0.50;0.30;;;;;;;12.00;58.73;96223.34;5132775;27;20420;-54
2022/10/07 00:11:13;;;;;;;0.40;0.20;;;;;;;12.13;57.23;96174.25;5132953;27;20432;-54
2022/10/07 00:13:43;;;;;;;0.40;0.20;;;;;;;12.62;57.17;96230.59;5132517;27;20432;-54
2022/10/07 00:16:15;;;;;;;0.40;0.30;;;;;;;12.90;56.10;96229.38;5132481;27;20434;-54
2022/10/07 00:18:44;;;;;;;0.40;0.20;;;;;;;12.64;56.71;96210.66;5132735;27;20492;-54
2022/10/07 00:21:15;;;;;;;0.50;0.43;;;;;;;12.72;57.26;96222.66;5132320;27;20433;-54
2022/10/07 00:23:44;;;;;;;0.40;0.30;;;;;;;12.77;57.07;96214.69;5131923;27;20890;-54
2022/10/07 00:26:15;;;;;;;0.40;0.30;;;;;;;12.79;56.16;96217.91;5132803;27;20783;-54
2022/10/07 00:28:44;;;;;;;0.40;0.30;;;;;;;11.30;58.90;96186.38;5131955;27;20423;-54
2022/10/07 00:31:16;;;;;;;0.40;0.20;;;;;;;11.66;59.27;96179.50;5132592;27;20426;-54
2022/10/07 00:33:45;;;;;;;0.50;0.30;;;;;;;11.94;58.42;96219.03;5132322;27;20924;-54
2022/10/07 00:36:16;;;;;;;0.40;0.30;;;;;;;11.48;60.31;96231.13;5132541;27;20516;-54
2022/10/07 00:38:44;;;;;;;0.40;0.30;;;;;;;11.63;60.13;96222.50;5132817;27;20461;-54
2022/10/07 00:41:17;;;;;;;0.40;0.40;;;;;;;11.42;60.21;96184.38;5132431;27;20423;-54
2022/10/07 00:43:46;;;;;;;0.40;0.30;;;;;;;10.99;61.51;96194.28;5132706;27;20444;-54
2022/10/07 00:46:25;;;;;;;0.40;0.20;;;;;;;11.41;59.56;96201.34;5132585;27;20909;-54
2022/10/07 00:48:55;;;;;;;0.40;0.20;;;;;;;11.92;59.14;96199.09;5132524;27;20428;-54
2022/10/07 00:51:24;;;;;;;0.40;0.30;;;;;;;11.40;60.15;96207.72;5132467;27;20422;-54
2022/10/07 00:53:55;;;;;;;0.47;0.47;;;;;;;11.44;60.52;96197.38;5132422;27;20433;-55
2022/10/07 00:56:25;;;;;;;0.40;0.30;;;;;;;11.65;58.70;96193.03;5132614;27;20433;-54
2022/10/07 00:58:53;;;;;;;0.40;0.20;;;;;;;11.41;59.24;96139.47;5132294;27;20472;-54
2022/10/07 01:01:23;;;;;;;0.40;0.20;;;;;;;11.67;59.32;96201.53;5134141;27;20425;-54
2022/10/07 01:03:53;;;;;;;0.40;0.20;;;;;;;11.41;59.33;96181.94;5136721;27;20925;-54
2022/10/07 01:06:22;;;;;;;0.60;0.50;;;;;;;11.37;58.53;96176.34;5136290;27;20434;-54
2022/10/07 01:08:53;;;;;;;0.43;0.30;;;;;;;11.66;57.81;96184.03;5136410;27;20437;-54
2022/10/07 01:11:33;;;;;;;0.40;0.20;;;;;;;11.13;58.65;96187.56;5136570;27;20448;-54
2022/10/07 01:14:09;;;;;;;0.40;0.20;;;;;;;11.67;57.97;96185.59;5136036;27;20946;-54
2022/10/07 01:16:47;;;;;;;0.40;0.30;;;;;;;11.78;56.98;96182.00;5136032;27;20439;-54
2022/10/07 01:19:39;;;;;;;0.40;0.20;;;;;;;11.10;59.41;96193.34;5135892;27;20468;-54
2022/10/07 01:22:21;;;;;;;0.40;0.20;;;;;;;11.72;58.44;96194.44;5136264;27;20434;-54
2022/10/07 01:24:59;;;;;;;0.40;0.30;;;;;;;11.35;59.38;96159.88;5135831;27;20470;-54
2022/10/07 01:27:30;;;;;;;0.40;0.23;;;;;;;11.53;59.13;96189.75;5136204;27;20936;-54
2022/10/07 01:30:04;;;;;;;0.40;0.30;;;;;;;11.33;60.29;96191.16;5135897;27;20444;-54
2022/10/07 01:32:37;;;;;;;0.40;0.20;;;;;;;11.40;61.26;96202.41;5135753;27;20423;-54
2022/10/07 01:35:10;;;;;;;0.40;0.30;;;;;;;11.69;59.94;96180.91;5136128;27;20434;-54
2022/10/07 01:37:44;;;;;;;0.40;0.20;;;;;;;11.05;60.73;96132.28;5135714;27;20425;-54
2022/10/07 01:40:18;;;;;;;0.40;0.20;;;;;;;10.52;63.58;96173.66;5135610;27;20476;-54
2022/10/07 01:42:48;;;;;;;0.40;0.30;;;;;;;10.39;63.86;96144.88;5135699;27;20425;-54
2022/10/07 01:45:21;;;;;;;0.50;0.40;;;;;;;10.04;66.65;96184.91;5135475;27;20514;-54
2022/10/07 01:47:50;;;;;;;0.53;0.53;;;;;;;10.29;66.66;96199.59;5135880;27;20427;-54
2022/10/07 01:50:23;;;;;;;0.40;0.23;;;;;;;10.78;64.83;96191.44;5135458;27;20433;-54
2022/10/07 01:53:05;;;;;;;0.40;0.30;;;;;;;10.99;63.98;96189.78;5135347;27;20434;-54
2022/10/07 01:55:49;;;;;;;0.40;0.30;;;;;;;10.64;65.05;96182.28;5135430;27;20430;-54
2022/10/07 01:58:38;;;;;;;0.40;0.30;;;;;;;11.02;64.09;96194.59;5135359;27;20423;-54
2022/10/07 02:01:17;;;;;;;0.40;0.30;;;;;;;10.31;65.20;96107.41;5135382;27;20433;-54
2022/10/07 02:04:06;;;;;;;0.40;0.23;;;;;;;11.05;63.84;96190.66;5135323;27;20507;-54
2022/10/07 02:06:43;;;;;;;5.90;0.40;;;;;;;11.07;64.45;96196.50;5135079;27;20470;-54
2022/10/07 02:09:23;;;;;;;0.40;0.30;;;;;;;11.16;64.46;96197.63;5135478;27;20456;-54
2022/10/07 02:11:59;;;;;;;1.07;0.33;;;;;;;10.91;65.38;96197.38;5135394;27;20443;-54
2022/10/07 02:14:38;;;;;;;0.40;0.20;;;;;;;11.17;64.06;96194.75;5134498;27;20432;-54
2022/10/07 02:17:13;;;;;;;0.50;0.30;;;;;;;11.26;63.87;96201.19;5135236;27;20429;-55
2022/10/07 02:19:46;;;;;;;0.40;0.30;;;;;;;11.02;64.09;96201.75;5134966;27;20473;-53
2022/10/07 02:22:17;;;;;;;0.40;0.23;;;;;;;10.83;65.03;96201.28;5135046;27;21039;-54
2022/10/07 02:24:48;;;;;;;0.40;0.30;;;;;;;11.00;64.18;96202.03;5134726;27;20484;-54
2022/10/07 02:27:20;;;;;;;0.97;0.53;;;;;;;10.95;64.37;96201.16;5134881;27;20430;-54
2022/10/07 02:29:53;;;;;;;0.40;0.20;;;;;;;11.00;63.65;96194.06;5134805;27;20425;-54
2022/10/07 02:32:24;;;;;;;0.40;0.30;;;;;;;10.63;64.88;96215.13;5134705;27;20438;-54
2022/10/07 02:34:57;;;;;;;0.40;0.30;;;;;;;11.02;63.63;96209.72;5134966;27;20434;-54
2022/10/07 02:37:30;;;;;;;0.40;0.20;;;;;;;11.08;63.48;96214.81;5134961;27;20422;-53
2022/10/07 02:39:59;;;;;;;0.40;0.23;;;;;;;11.10;63.84;96219.88;5134547;27;20474;-53
2022/10/07 02:42:35;;;;;;;0.40;0.20;;;;;;;11.10;64.27;96215.38;5134670;27;20426;-53
2022/10/07 02:45:14;;;;;;;0.40;0.20;;;;;;;10.96;63.90;96221.31;5134426;27;20436;-54
2022/10/07 02:47:49;;;;;;;0.40;0.20;;;;;;;10.82;64.07;96216.41;5134692;27;20433;-54
2022/10/07 02:50:23;;;;;;;0.40;0.20;;;;;;;9.60;67.30;96164.69;5134406;27;20437;-54
2022/10/07 02:52:55;;;;;;;0.50;0.30;;;;;;;10.53;66.90;96224.78;5134673;27;20769;-54
2022/10/07 02:55:27;;;;;;;0.40;0.30;;;;;;;10.57;65.80;96221.44;5134339;27;20443;-54
2022/10/07 02:57:58;;;;;;;0.40;0.23;;;;;;;10.81;65.74;96222.75;5134654;27;20433;-54
2022/10/07 03:00:31;;;;;;;0.40;0.20;;;;;;;10.88;65.16;96224.44;5134441;27;20477;-54
2022/10/07 03:03:01;;;;;;;0.40;0.20;;;;;;;11.04;64.60;96228.84;5133976;27;20811;-54
2022/10/07 03:05:29;;;;;;;0.30;0.20;;;;;;;11.11;64.54;96232.88;5134148;27;20975;-54
2022/10/07 03:08:00;;;;;;;1.13;0.30;;;;;;;10.99;63.82;96226.94;5134099;27;20917;-54
2022/10/07 03:10:28;;;;;;;0.40;0.20;;;;;;;10.42;65.92;96226.53;5134058;27;20436;-54
2022/10/07 03:12:57;;;;;;;0.40;0.27;;;;;;;10.30;64.83;96169.38;5134285;27;20436;-54
2022/10/07 03:15:26;;;;;;;0.40;0.20;;;;;;;10.59;65.59;96229.94;5133933;27;20901;-54
2022/10/07 03:17:56;;;;;;;0.40;0.30;;;;;;;10.65;64.33;96223.63;5133800;27;20929;-54
2022/10/07 03:20:24;;;;;;;0.40;0.23;;;;;;;10.77;65.95;96236.78;5133808;27;20477;-54
2022/10/07 03:22:52;;;;;;;3.13;1.13;;;;;;;10.20;67.15;96217.75;5133939;27;20441;-54
2022/10/07 03:25:20;;;;;;;0.60;0.60;;;;;;;10.54;66.39;96218.47;5133085;27;20456;-54
2022/10/07 03:27:48;;;;;;;0.40;0.30;;;;;;;10.09;64.63;96117.97;5133723;27;20437;-54
2022/10/07 03:30:19;;;;;;;0.40;0.30;;;;;;;10.71;64.98;96216.53;5134093;27;20938;-54
2022/10/07 03:32:52;;;;;;;0.40;0.20;;;;;;;10.51;65.57;96208.34;5133932;27;20494;-54
2022/10/07 03:35:21;;;;;;;0.40;0.30;;;;;;;10.49;65.72;96224.50;5133862;27;20434;-54
2022/10/07 03:37:50;;;;;;;0.40;0.30;;;;;;;10.59;65.86;96215.88;5133639;27;20428;-54
2022/10/07 03:40:19;;;;;;;0.40;0.30;;;;;;;10.40;67.73;96217.22;5133848;27;20469;-54
2022/10/07 03:42:48;;;;;;;0.50;0.30;;;;;;;10.54;67.03;96221.09;5133294;27;20463;-54
2022/10/07 03:45:19;;;;;;;0.50;0.30;;;;;;;9.96;68.45;96216.31;5133440;27;20422;-54
2022/10/07 03:47:47;;;;;;;0.53;0.30;;;;;;;9.73;69.35;96232.38;5133426;27;20438;-54
2022/10/07 03:50:16;;;;;;;0.40;0.30;;;;;;;9.60;71.48;96225.56;5133449;27;20419;-55
2022/10/07 03:52:45;;;;;;;0.50;0.40;;;;;;;9.74;70.11;96173.13;5133231;27;20433;-54
2022/10/07 03:55:15;;;;;;;0.40;0.20;;;;;;;10.12;69.39;96213.66;5133545;27;20452;-54
2022/10/07 03:57:52;;;;;;;0.40;0.20;;;;;;;10.34;69.58;96223.50;5133193;27;20434;-54
2022/10/07 04:00:27;;;;;;;0.40;0.30;;;;;;;10.27;68.96;96222.88;5133077;27;20482;-54
2022/10/07 04:02:55;;;;;;;0.40;0.30;;;;;;;9.75;68.64;96142.94;5133124;27;20433;-54
2022/10/07 04:05:23;;;;;;;0.40;0.30;;;;;;;10.11;69.49;96224.47;5133162;27;20427;-54
2022/10/07 04:07:53;;;;;;;0.97;0.87;;;;;;;9.87;68.40;96186.00;5133384;27;20430;-54
2022/10/07 04:10:21;;;;;;;0.43;0.37;;;;;;;10.03;69.71;96233.66;5133078;27;20438;-55
2022/10/07 04:12:51;;;;;;;0.40;0.30;;;;;;;9.57;72.73;96239.28;5133345;27;20434;-54
2022/10/07 04:15:20;;;;;;;0.37;0.20;;;;;;;10.03;70.93;96228.34;5133105;27;20426;-53
2022/10/07 04:17:49;;;;;;;0.77;0.77;;;;;;;10.27;70.34;96231.59;5133303;27;20433;-53
2022/10/07 04:20:17;;;;;;;0.40;0.30;;;;;;;10.05;70.79;96228.09;5133312;27;20841;-53
2022/10/07 04:22:46;;;;;;;0.40;0.30;;;;;;;10.12;70.75;96234.84;5133012;27;20835;-53
2022/10/07 04:25:34;;;;;;;0.40;0.20;;;;;;;10.23;69.63;96240.28;5133358;27;20931;-53
2022/10/07 04:28:04;;;;;;;0.40;0.30;;;;;;;10.11;69.83;96235.06;5132625;27;20430;-54
2022/10/07 04:30:39;;;;;;;0.40;0.20;;;;;;;10.15;70.39;96241.50;5132674;27;20433;-54
2022/10/07 04:33:07;;;;;;;2.20;0.30;;;;;;;10.30;70.14;96235.63;5132840;27;20441;-54
2022/10/07 04:35:38;;;;;;;0.40;0.30;;;;;;;10.71;68.75;96246.50;5132431;27;20429;-54
2022/10/07 04:38:09;;;;;;;0.40;0.30;;;;;;;10.90;67.41;96228.44;5132588;27;20440;-54
2022/10/07 04:40:43;;;;;;;0.30;0.20;;;;;;;9.75;68.31;96121.75;5132562;27;20468;-54
2022/10/07 04:43:23;;;;;;;0.60;0.53;;;;;;;10.53;68.13;96246.00;5132642;27;20419;-54
2022/10/07 04:45:53;;;;;;;1.00;0.73;;;;;;;10.89;67.10;96252.53;5132765;27;20453;-54
2022/10/07 04:48:23;;;;;;;0.50;0.40;;;;;;;10.71;66.97;96232.44;5132890;27;20440;-54
2022/10/07 04:50:51;;;;;;;0.47;0.40;;;;;;;9.92;70.06;96215.19;5132242;27;20437;-54
2022/10/07 04:53:20;;;;;;;0.60;0.60;;;;;;;10.43;68.76;96256.47;5132424;27;20437;-54
2022/10/07 04:55:51;;;;;;;1.03;0.43;;;;;;;10.46;69.09;96248.03;5132846;27;20430;-53
2022/10/07 04:58:20;;;;;;;0.40;0.30;;;;;;;10.45;68.76;96225.25;5132783;27;20425;-54
2022/10/07 05:00:50;;;;;;;0.60;0.50;;;;;;;10.56;68.98;96261.41;5132694;27;20469;-54
2022/10/07 05:03:20;;;;;;;0.50;0.40;;;;;;;10.74;67.87;96261.13;5132862;27;20827;-54
2022/10/07 05:05:50;;;;;;;0.40;0.30;;;;;;;10.71;68.08;96240.41;5132599;27;20429;-54
2022/10/07 05:08:21;;;;;;;0.40;0.30;;;;;;;10.11;68.14;96187.41;5132363;27;20430;-54
2022/10/07 05:10:54;;;;;;;0.40;0.30;;;;;;;10.56;68.10;96269.38;5132448;27;20797;-54
2022/10/07 05:13:23;;;;;;;0.40;0.30;;;;;;;10.56;67.99;96266.72;5132695;27;20465;-54
2022/10/07 05:15:53;;;;;;;0.40;0.40;;;;;;;10.04;71.29;96274.19;5132394;27;20438;-54
2022/10/07 05:18:22;;;;;;;0.77;0.60;;;;;;;10.42;69.13;96237.13;5132347;27;20436;-54
2022/10/07 05:20:51;;;;;;;0.40;0.30;;;;;;;10.87;67.54;96271.38;5132223;27;21039;-55
2022/10/07 05:23:21;;;;;;;4.93;0.60;;;;;;;10.95;67.58;96270.13;5132327;27;20462;-54
2022/10/07 05:26:03;;;;;;;0.60;0.33;;;;;;;11.01;66.98;96266.47;5132340;27;20426;-53
2022/10/07 05:28:31;;;;;;;0.40;0.40;;;;;;;10.83;68.57;96284.31;5132310;27;20422;-54
2022/10/07 05:31:05;;;;;;;0.40;0.30;;;;;;;11.25;66.76;96279.22;5132356;27;20437;-55
2022/10/07 05:33:34;;;;;;;0.40;0.20;;;;;;;10.61;66.77;96219.88;5132548;27;20470;-54
2022/10/07 05:36:03;;;;;;;0.43;0.43;;;;;;;11.43;66.33;96281.50;5132250;27;20945;-54
2022/10/07 05:38:32;;;;;;;0.80;0.37;;;;;;;11.66;64.88;96287.59;5131864;27;20830;-54
2022/10/07 05:41:04;;;;;;;0.40;0.33;;;;;;;12.08;62.33;96289.31;5132439;27;20475;-54
2022/10/07 05:43:35;;;;;;;0.40;0.20;;;;;;;12.21;62.69;96295.22;5132272;27;20441;-54
2022/10/07 05:46:05;;;;;;;0.50;0.30;;;;;;;12.33;62.56;96277.22;5132445;27;20421;-55
2022/10/07 05:48:35;;;;;;;1.90;0.60;;;;;;;11.98;63.66;96294.53;5133918;27;20461;-54
2022/10/07 05:51:07;;;;;;;1.07;1.00;;;;;;;10.83;68.86;96307.38;5135612;27;21031;-53
2022/10/07 05:53:39;;;;;;;1.57;1.47;;;;;;;10.36;70.71;96300.91;5135853;27;20490;-53
2022/10/07 05:56:11;;;;;;;0.43;0.40;;;;;;;10.47;70.23;96307.97;5135938;27;20926;-54
2022/10/07 05:58:39;;;;;;;2.07;1.30;;;;;;;10.76;69.83;96318.16;5135426;27;20965;-53
2022/10/07 06:01:13;;;;;;;2.80;2.60;;;;;;;11.53;67.12;96299.41;5135418;27;20477;-52
2022/10/07 06:03:42;;;;;;;5.03;0.70;;;;;;;12.85;64.14;96314.50;5135209;27;20433;-56
2022/10/07 06:06:10;;;;;;;1.50;1.40;;;;;;;13.78;61.60;96308.97;5135364;27;20440;-55
2022/10/07 06:08:38;;;;;;;9.77;0.60;;;;;;;14.15;59.47;96252.72;5135654;27;20845;-54
2022/10/07 06:13:56;;;;;;;4.30;1.10;;;;;;;15.02;57.29;96297.63;5135299;27;20445;-55
2022/10/07 06:16:25;;;;;;;2.20;2.00;;;;;;;15.49;56.21;96301.69;5135136;27;20437;-54
2022/10/07 06:18:54;;;;;;;2.20;0.87;;;;;;;16.05;54.58;96294.09;5135171;27;20422;-55
2022/10/07 06:21:26;;;;;;;1.53;1.43;;;;;;;16.10;54.09;96305.56;5135297;27;20842;-55
2022/10/07 06:23:56;;;;;;;2.37;0.77;;;;;;;15.99;53.81;96304.03;5134814;27;20837;-58
2022/10/07 06:26:26;;;;;;;1.67;1.33;;;;;;;16.68;52.80;96303.75;5135000;27;20437;-56
2022/10/07 06:28:55;;;;;;;0.77;0.70;;;;;;;17.08;50.68;96246.22;5134765;27;20438;-57
2022/10/07 06:31:24;;;;;;;3.07;2.97;;;;;;;17.74;49.24;96292.53;5135162;27;20425;-57
2022/10/07 06:33:53;;;;;;;1.03;1.03;;;;;;;17.89;49.21;96283.47;5135100;27;20972;-59
2022/10/07 06:36:21;;;;;;;0.70;0.70;;;;;;;18.16;49.18;96293.53;5134623;27;20436;-57
2022/10/07 06:38:51;;;;;;;1.27;1.13;;;;;;;18.25;48.16;96278.31;5134773;27;20430;-58
2022/10/07 06:41:20;;;;;;;2.10;1.83;;;;;;;18.66;46.98;96289.19;5134514;27;20553;-56
2022/10/07 06:43:54;;;;;;;2.33;1.23;;;;;;;18.02;48.06;96289.97;5134220;27;20902;-55
2022/10/07 06:46:22;;;;;;;0.83;0.83;;;;;;;18.02;47.65;96287.28;5134514;27;20435;-55
2022/10/07 06:48:51;;;;;;;0.50;0.40;;;;;;;18.67;58.04;96299.63;5134869;27;20427;-55
2022/10/07 06:51:20;;;;;;;1.83;1.73;;;;;;;19.54;52.50;96286.91;5134806;27;20807;-55
2022/10/07 06:53:52;;;;;;;0.60;0.53;;;;;;;19.80;44.50;96244.09;5133915;27;20438;-56
2022/10/07 06:56:20;;;;;;;1.00;1.00;;;;;;;20.43;48.12;96283.50;5134606;27;20423;-56
2022/10/07 06:58:50;;;;;;;1.20;1.13;;;;;;;20.83;43.38;96291.34;5134219;27;20422;-56
2022/10/07 07:01:18;;;;;;;1.50;1.40;;;;;;;20.84;44.96;96290.25;5134538;27;20834;-57
2022/10/07 07:03:47;;;;;;;1.53;1.43;;;;;;;21.01;46.53;96280.63;5134198;27;21001;-55
2022/10/07 07:06:16;;;;;;;1.80;0.80;;;;;;;20.89;47.59;96283.91;5134451;27;20829;-55
2022/10/07 07:08:44;;;;;;;0.70;0.70;;;;;;;20.92;45.55;96232.84;5134040;27;20425;-55
2022/10/07 07:14:02;;;;;;;0.60;0.40;;;;;;;21.97;41.38;96267.84;5134356;27;20889;-54
2022/10/07 07:16:30;;;;;;;1.80;1.07;;;;;;;21.30;41.14;96281.69;5133690;27;20427;-54
2022/10/07 07:19:01;;;;;;;1.63;0.90;;;;;;;21.50;40.69;96273.00;5134352;27;20418;-54
2022/10/07 07:21:30;;;;;;;3.03;0.53;;;;;;;22.07;40.29;96267.50;5133605;27;20474;-54
2022/10/07 07:24:00;;;;;;;1.60;1.60;;;;;;;22.03;40.15;96266.56;5133866;27;20477;-53
2022/10/07 07:26:28;;;;;;;3.73;1.40;;;;;;;22.09;39.55;96267.97;5133520;27;20787;-53
2022/10/07 07:28:59;;;;;;;1.83;1.30;;;;;;;21.65;41.05;96195.41;5133164;27;20449;-53
2022/10/07 07:31:30;;;;;;;1.20;1.17;;;;;;;22.38;39.56;96262.72;5133863;27;20431;-52
2022/10/07 07:34:00;;;;;;;0.70;0.70;;;;;;;22.72;41.72;96254.53;5132849;27;20438;-52
2022/10/07 07:36:32;;;;;;;0.40;0.30;;;;;;;22.48;39.90;96256.16;5131655;27;20419;-52
2022/10/07 07:39:03;;;;;;;1.63;0.80;;;;;;;22.27;39.14;96244.44;5131745;27;20840;-52
2022/10/07 07:41:34;;;;;;;0.40;0.30;;;;;;;22.69;39.13;96244.34;5132167;27;20423;-52
2022/10/07 07:44:05;;;;;;;0.70;0.70;;;;;;;24.11;37.38;96247.97;5131636;27;20427;-52
2022/10/07 07:46:37;;;;;;;0.60;0.57;;;;;;;23.23;37.77;96239.19;5132039;27;20441;-52
2022/10/07 07:49:06;;;;;;;1.30;1.20;;;;;;;22.28;39.30;96236.03;5133013;27;20427;-52
2022/10/07 07:51:34;;;;;;;0.63;0.63;;;;;;;22.11;39.81;96231.44;5133691;27;20431;-52
2022/10/07 07:54:02;;;;;;;0.40;0.30;;;;;;;24.56;37.08;96229.06;5133330;27;21094;-52
2022/10/07 07:56:31;;;;;;;0.40;0.30;;;;;;;24.92;35.76;96223.69;5133299;27;20779;-52
2022/10/07 07:59:00;;;;;;;0.60;0.47;;;;;;;24.32;36.42;96227.06;5133542;27;20450;-51
2022/10/07 08:01:30;;;;;;;0.43;0.43;;;;;;;24.10;37.23;96218.53;5133468;27;20918;-52
2022/10/07 08:04:01;;;;;;;0.40;0.20;;;;;;;24.43;36.80;96216.59;5133562;27;20509;-52
2022/10/07 08:06:30;;;;;;;0.63;0.57;;;;;;;24.72;36.67;96205.56;5133201;27;20423;-51
2022/10/07 08:08:58;;;;;;;1.70;1.13;;;;;;;23.91;36.42;96208.94;5133096;27;20427;-52
2022/10/07 08:11:27;;;;;;;0.40;0.20;;;;;;;24.94;35.92;96205.19;5132657;27;20435;-51
2022/10/07 08:13:56;;;;;;;3.17;0.50;;;;;;;24.70;35.89;96201.59;5133170;27;20421;-51
2022/10/07 08:16:28;;;;;;;0.60;0.60;;;;;;;25.37;35.52;96199.16;5133186;27;20438;-51
2022/10/07 08:18:57;;;;;;;0.40;0.30;;;;;;;25.44;35.21;96187.69;5133370;27;20441;-51
2022/10/07 08:21:31;;;;;;;0.80;0.40;;;;;;;26.16;34.42;96175.88;5133334;27;20511;-52
2022/10/07 08:24:02;;;;;;;0.50;0.30;;;;;;;26.34;33.59;96175.19;5132581;27;20482;-51
2022/10/07 08:26:33;;;;;;;0.67;0.67;;;;;;;25.82;33.57;96169.88;5133252;27;20429;-52
2022/10/07 08:29:02;;;;;;;0.83;0.60;;;;;;;26.06;34.15;96162.75;5133199;27;20450;-52
2022/10/07 08:31:31;;;;;;;0.47;0.40;;;;;;;27.33;33.17;96160.47;5132859;27;20438;-52
2022/10/07 08:34:01;;;;;;;0.57;0.40;;;;;;;28.83;30.95;96161.91;5133209;27;20886;-52
2022/10/07 08:36:33;;;;;;;0.60;0.30;;;;;;;26.53;33.50;96160.09;5132728;27;20433;-52
2022/10/07 08:39:01;;;;;;;1.07;0.97;;;;;;;26.20;33.88;96155.00;5132888;27;20446;-52
2022/10/07 08:41:52;;;;;;;0.53;0.53;;;;;;;26.80;34.17;96148.38;5132099;27;20442;-52
2022/10/07 08:44:26;;;;;;;0.50;0.43;;;;;;;27.64;33.04;96142.13;5132092;27;20416;-52
2022/10/07 08:47:00;;;;;;;1.07;0.40;;;;;;;27.77;32.99;96137.31;5132921;27;20428;-52
2022/10/07 08:49:39;;;;;;;0.50;0.40;;;;;;;27.00;32.18;96141.84;5132831;27;20418;-52
2022/10/07 08:52:24;;;;;;;0.40;0.30;;;;;;;26.95;32.69;96142.13;5132962;27;20430;-52
2022/10/07 08:54:53;;;;;;;0.40;0.40;;;;;;;26.14;32.24;96143.59;5133041;27;20430;-52
2022/10/07 08:57:36;;;;;;;0.40;0.30;;;;;;;27.47;31.75;96123.50;5132785;27;20423;-52
2022/10/07 09:00:06;;;;;;;0.40;0.30;;;;;;;28.00;30.43;96074.69;5132943;27;20427;-52
2022/10/07 09:02:43;;;;;;;0.50;0.40;;;;;;;27.67;29.52;96086.94;5132668;27;20463;-52
2022/10/07 09:05:21;;;;;;;0.73;0.73;;;;;;;28.65;28.49;96121.81;5132750;27;20438;-52
2022/10/07 09:07:53;;;;;;;0.50;0.30;;;;;;;28.50;29.33;96120.78;5132079;27;20429;-52
2022/10/07 09:10:31;;;;;;;0.40;0.30;;;;;;;28.61;28.96;96116.31;5132529;27;20454;-51
2022/10/07 09:13:03;;;;;;;0.50;0.50;;;;;;;28.09;29.10;96056.97;5132530;27;20476;-51
2022/10/07 09:15:39;;;;;;;0.80;0.40;;;;;;;28.53;30.70;96108.34;5132554;27;20431;-52
2022/10/07 09:18:16;;;;;;;1.70;0.40;;;;;;;29.19;29.34;96107.81;5132830;27;20434;-52
2022/10/07 09:20:50;;;;;;;0.70;0.60;;;;;;;28.72;29.31;96095.44;5132434;27;20426;-52
2022/10/07 09:23:22;;;;;;;0.43;0.43;;;;;;;29.86;28.25;96029.44;5133674;27;20949;-52
2022/10/07 09:25:51;;;;;;;0.70;0.70;;;;;;;29.20;28.33;96087.56;5136259;27;20533;-52
2022/10/07 09:28:25;;;;;;;1.27;0.40;;;;;;;28.47;28.38;96083.31;5136224;27;20430;-52
2022/10/07 09:30:54;;;;;;;0.40;0.40;;;;;;;28.51;29.91;96086.91;5136198;27;20422;-53
2022/10/07 09:33:24;;;;;;;0.40;0.30;;;;;;;30.91;28.30;96065.16;5136220;27;20431;-52
2022/10/07 09:35:54;;;;;;;0.40;0.30;;;;;;;30.86;26.47;96064.69;5136109;27;20429;-52
2022/10/07 09:38:35;;;;;;;0.40;0.40;;;;;;;29.98;26.86;96059.28;5136344;27;20852;-52
2022/10/07 09:41:15;;;;;;;0.83;0.40;;;;;;;29.80;26.85;96067.28;5136385;27;20426;-52
2022/10/07 09:43:55;;;;;;;11.00;1.37;;;;;;;29.84;27.58;96059.09;5135870;27;20477;-52
2022/10/07 09:46:39;;;;;;;0.60;0.50;;;;;;;29.92;26.81;96053.34;5136354;27;20422;-52
2022/10/07 09:49:35;;;;;;;0.40;0.30;;;;;;;31.20;25.84;96047.72;5135887;27;20437;-53
2022/10/07 09:52:06;;;;;;;0.40;0.40;;;;;;;30.83;25.80;96040.81;5135864;27;20442;-53
2022/10/07 09:54:36;;;;;;;0.60;0.50;;;;;;;29.87;25.75;96033.75;5135720;27;20438;-53
2022/10/07 09:57:06;;;;;;;0.70;0.47;;;;;;;30.24;25.25;96033.69;5135944;27;20426;-53
2022/10/07 09:59:36;;;;;;;0.50;0.50;;;;;;;31.99;24.92;96031.19;5135627;27;20430;-53
2022/10/07 10:02:21;;;;;;;0.40;0.30;;;;;;;31.19;23.99;96024.25;5135735;27;20426;-53
2022/10/07 10:04:51;;;;;;;0.50;0.40;;;;;;;31.65;25.67;96016.19;5135861;27;20482;-53
2022/10/07 10:07:25;;;;;;;0.40;0.30;;;;;;;31.87;24.70;96012.34;5135977;27;20434;-53
2022/10/07 10:09:57;;;;;;;0.40;0.30;;;;;;;32.52;23.37;95968.13;5135479;27;20422;-53
2022/10/07 10:12:26;;;;;;;0.30;0.30;;;;;;;31.97;22.86;95879.94;5135890;27;20422;-53
2022/10/07 10:14:55;;;;;;;0.33;0.30;;;;;;;33.47;22.71;95991.00;5135467;27;20441;-53
2022/10/07 10:17:28;;;;;;;0.60;0.60;;;;;;;32.82;23.03;95955.88;5135510;27;20785;-53
2022/10/07 10:20:31;;;;;;;0.50;0.30;;;;;;;31.48;22.53;95983.25;5135431;27;20423;-53
2022/10/07 10:23:01;;;;;;;0.50;0.50;;;;;;;31.47;23.73;95978.97;5135275;27;20480;-52
2022/10/07 10:28:44;;;;;;;4.17;0.40;;;;;;;31.60;23.19;95975.47;5135078;27;20433;-52
2022/10/07 10:31:24;;;;;;;0.40;0.20;;;;;;;32.55;22.88;95961.84;5134965;27;20418;-52
2022/10/07 10:34:01;;;;;;;0.60;0.60;;;;;;;33.07;22.31;95962.88;5134565;27;20422;-52
2022/10/07 10:36:33;;;;;;;0.40;0.30;;;;;;;32.67;20.61;95954.34;5135015;27;20422;-52
2022/10/07 10:39:06;;;;;;;0.40;0.30;;;;;;;31.66;22.27;95948.47;5135116;27;20427;-52
2022/10/07 10:41:47;;;;;;;0.30;0.30;;;;;;;32.80;21.55;95950.00;5134907;27;20438;-53
2022/10/07 10:44:48;;;;;;;0.70;0.57;;;;;;;33.00;21.67;95945.63;5134921;27;20477;-52
2022/10/07 10:47:24;;;;;;;0.40;0.30;;;;;;;32.45;21.75;95937.91;5134774;27;20436;-52
2022/10/07 10:50:04;;;;;;;0.30;0.30;;;;;;;34.08;19.89;95929.72;5134785;27;20432;-52
2022/10/07 10:52:48;;;;;;;0.30;0.30;;;;;;;33.73;19.99;95925.25;5134950;27;20414;-52
2022/10/07 10:55:38;;;;;;;0.40;0.30;;;;;;;34.21;20.94;95933.53;5134523;27;20447;-52
2022/10/07 10:58:23;;;;;;;0.30;0.20;;;;;;;33.60;20.22;95929.66;5134761;27;20857;-52
2022/10/07 11:01:05;;;;;;;0.97;0.93;;;;;;;32.71;19.49;95906.50;5134811;27;20427;-52
2022/10/07 11:03:48;;;;;;;0.40;0.30;;;;;;;33.46;20.23;95918.75;5134349;27;20468;-53
2022/10/07 11:06:18;;;;;;;0.30;0.30;;;;;;;33.39;18.74;95918.00;5134347;27;20914;-53
2022/10/07 11:08:50;;;;;;;0.33;0.30;;;;;;;32.06;19.06;95903.47;5134167;27;20437;-53
2022/10/07 11:11:21;;;;;;;0.30;0.30;;;;;;;30.07;21.26;95904.69;5134150;27;20438;-53
2022/10/07 11:13:58;;;;;;;0.40;0.30;;;;;;;31.03;20.19;95894.28;5134124;27;20418;-53
2022/10/07 11:16:30;;;;;;;0.30;0.20;;;;;;;32.63;20.89;95903.00;5134265;27;20429;-52
2022/10/07 11:19:05;;;;;;;0.30;0.27;;;;;;;32.09;20.01;95897.97;5133503;27;21006;-52
2022/10/07 11:21:37;;;;;;;0.40;0.40;;;;;;;32.74;19.59;95870.00;5133831;27;20433;-53
2022/10/07 11:24:14;;;;;;;0.40;0.30;;;;;;;32.44;19.12;95877.91;5133615;27;20473;-53
2022/10/07 11:26:45;;;;;;;0.30;0.30;;;;;;;31.17;21.15;95889.63;5133876;27;20434;-53
2022/10/07 11:29:28;;;;;;;0.30;0.20;;;;;;;30.94;21.23;95871.97;5134053;27;20433;-53
2022/10/07 11:32:04;;;;;;;0.50;0.30;;;;;;;31.02;21.77;95876.31;5133923;27;20500;-53
2022/10/07 11:34:43;;;;;;;0.30;0.30;;;;;;;30.48;21.06;95871.75;5133640;27;20434;-53
2022/10/07 11:37:18;;;;;;;0.70;0.63;;;;;;;31.45;21.53;95877.19;5134166;27;20445;-53
2022/10/07 11:39:47;;;;;;;0.40;0.30;;;;;;;31.20;21.04;95860.66;5133909;27;20433;-52
2022/10/07 11:42:21;;;;;;;0.30;0.30;;;;;;;32.01;20.95;95863.50;5133450;27;20426;-53
2022/10/07 11:45:00;;;;;;;0.50;0.40;;;;;;;31.91;20.55;95854.09;5133550;27;20580;-53
2022/10/07 11:47:34;;;;;;;0.30;0.30;;;;;;;30.70;21.37;95862.47;5133024;27;20422;-52
2022/10/07 11:50:09;;;;;;;0.30;0.30;;;;;;;32.11;20.46;95861.91;5133383;27;20422;-51
2022/10/07 11:52:42;;;;;;;0.30;0.20;;;;;;;31.48;21.61;95829.81;5133471;27;20426;-51
2022/10/07 11:55:21;;;;;;;0.40;0.30;;;;;;;32.10;19.74;95855.69;5132223;27;20437;-51
2022/10/07 11:57:54;;;;;;;0.30;0.20;;;;;;;31.67;19.82;95843.94;5133224;27;20433;-51
2022/10/07 12:00:28;;;;;;;0.30;0.20;;;;;;;32.99;18.92;95845.94;5133202;27;20926;-52
2022/10/07 12:02:57;;;;;;;0.40;0.30;;;;;;;31.56;20.06;95840.41;5133277;27;20458;-51
2022/10/07 12:05:56;;;;;;;0.50;0.40;;;;;;;32.50;19.47;95835.19;5132848;27;20561;-51
2022/10/07 12:08:31;;;;;;;0.30;0.20;;;;;;;33.18;19.57;95828.22;5133119;27;20433;-51